Time;durP1;ratioP1;P1;durP2;ratioP2;P2;SDS_P1;SDS_P2;PMS_P1;PMS_P2;Temp;Humidity;BMP_temperature;BMP_pressure;BME280_temperature;BME280_humidity;BME280_pressure;Samples;Min_cycle;Max_cycle;Signal;HPM_P1;HPM_P2
2024/01/17 00:00:08;;;;;;;20.97;13.23;;;;;;;;;;4956726;28;20966;-79
2024/01/17 00:02:34;;;;;;;20.20;12.93;;;;;;;;;;4956677;28;20524;-80
2024/01/17 00:05:00;;;;;;;21.93;12.83;;;;;;;;;;4956315;28;20952;-79
2024/01/17 00:07:26;;;;;;;17.97;12.53;;;;;;;;;;4956702;28;20415;-79
2024/01/17 00:09:52;;;;;;;18.73;13.10;;;;;;;;;;4956379;28;20447;-80
2024/01/17 00:12:18;;;;;;;23.20;13.73;;;;;;;;;;4955913;28;20405;-79
2024/01/17 00:14:44;;;;;;;18.73;13.80;;;;;;;;;;4915131;28;20980;-80
2024/01/17 00:17:09;;;;;;;17.97;13.90;;;;;;;;;;4956011;28;20503;-79
2024/01/17 00:19:36;;;;;;;13.20;11.80;;;;;;;;;;4955505;28;20468;-79
2024/01/17 00:22:05;;;;;;;17.90;11.60;;;;;;;;;;4956082;29;20423;-80
2024/01/17 00:24:31;;;;;;;14.60;12.20;;;;;;;;;;4956044;29;20411;-80
2024/01/17 00:26:57;;;;;;;15.77;12.50;;;;;;;;;;4956086;28;20493;-79
2024/01/17 00:29:22;;;;;;;15.50;11.90;;;;;;;;;;4956175;29;20787;-79
2024/01/17 00:31:48;;;;;;;15.83;11.23;;;;;;;;;;4955910;28;20478;-79
2024/01/17 00:34:15;;;;;;;19.97;11.53;;;;;;;;;;4955811;29;20415;-79
2024/01/17 00:36:40;;;;;;;14.83;11.23;;;;;;;;;;4955872;29;20487;-79
2024/01/17 00:39:06;;;;;;;20.43;11.90;;;;;;;;;;4956222;28;20417;-79
2024/01/17 00:41:32;;;;;;;14.30;11.90;;;;;;;;;;4955393;28;20420;-79
2024/01/17 00:43:58;;;;;;;15.57;10.87;;;;;;;;;;4955748;28;20437;-78
2024/01/17 00:46:24;;;;;;;13.83;10.50;;;;;;;;;;4955823;29;20474;-79
2024/01/17 00:48:50;;;;;;;15.80;11.53;;;;;;;;;;4955373;28;20455;-78
2024/01/17 00:51:25;;;;;;;20.70;12.07;;;;;;;;;;4955483;29;20600;-78
2024/01/17 00:53:54;;;;;;;19.93;12.93;;;;;;;;;;4955825;29;20427;-79
2024/01/17 00:56:20;;;;;;;15.10;11.97;;;;;;;;;;4955530;29;20527;-79
2024/01/17 00:58:46;;;;;;;16.80;11.60;;;;;;;;;;4955543;29;20901;-79
2024/01/17 01:01:12;;;;;;;18.07;11.30;;;;;;;;;;4955705;29;20417;-79
2024/01/17 01:03:38;;;;;;;17.10;10.73;;;;;;;;;;4955249;28;20478;-79
2024/01/17 01:06:05;;;;;;;13.57;11.10;;;;;;;;;;4955627;29;20413;-78
2024/01/17 01:08:30;;;;;;;16.57;11.47;;;;;;;;;;4954450;29;20972;-79
2024/01/17 01:10:56;;;;;;;17.53;11.17;;;;;;;;;;4955393;28;20422;-80
2024/01/17 01:13:23;;;;;;;22.93;11.90;;;;;;;;;;4955553;29;20437;-79
2024/01/17 01:15:49;;;;;;;16.20;11.13;;;;;;;;;;4955076;29;20477;-79
2024/01/17 01:18:15;;;;;;;14.77;11.07;;;;;;;;;;4954990;28;20464;-79
2024/01/17 01:20:41;;;;;;;19.80;13.03;;;;;;;;;;4955295;28;20432;-78
2024/01/17 01:23:07;;;;;;;16.80;10.90;;;;;;;;;;4955295;28;20459;-79
2024/01/17 01:25:36;;;;;;;14.60;10.77;;;;;;;;;;4954964;28;20463;-79
2024/01/17 01:28:02;;;;;;;19.50;13.13;;;;;;;;;;4955259;28;20511;-78
2024/01/17 01:30:28;;;;;;;14.03;10.57;;;;;;;;;;4955066;28;20448;-79
2024/01/17 01:32:54;;;;;;;13.93;10.80;;;;;;;;;;4954642;29;20756;-79
2024/01/17 01:35:20;;;;;;;19.20;11.67;;;;;;;;;;4954767;28;20830;-79
2024/01/17 01:37:49;;;;;;;11.03;9.60;;;;;;;;;;4930832;28;20452;-78
2024/01/17 01:40:15;;;;;;;15.57;10.63;;;;;;;;;;4921950;29;21009;-78
2024/01/17 01:42:44;;;;;;;19.17;11.17;;;;;;;;;;4949192;29;20523;-79
2024/01/17 01:45:10;;;;;;;12.57;9.70;;;;;;;;;;4954558;28;20428;-79
2024/01/17 01:47:36;;;;;;;14.37;9.77;;;;;;;;;;4954378;28;20408;-78
2024/01/17 01:50:05;;;;;;;15.93;11.60;;;;;;;;;;4954535;28;20429;-79
2024/01/17 01:52:31;;;;;;;13.30;10.10;;;;;;;;;;4954479;28;20858;-79
2024/01/17 01:54:58;;;;;;;17.10;11.63;;;;;;;;;;4954603;28;20421;-79
2024/01/17 01:57:24;;;;;;;16.20;10.80;;;;;;;;;;4954694;28;20423;-79
2024/01/17 01:59:50;;;;;;;16.17;10.73;;;;;;;;;;4954533;28;20928;-78
2024/01/17 02:02:16;;;;;;;16.63;11.20;;;;;;;;;;4954120;28;20420;-78
2024/01/17 02:04:46;;;;;;;18.50;9.90;;;;;;;;;;4954319;28;20422;-79
2024/01/17 02:07:16;;;;;;;16.60;11.43;;;;;;;;;;4954474;28;20746;-79
2024/01/17 02:09:44;;;;;;;14.83;11.53;;;;;;;;;;4954211;28;20444;-79
2024/01/17 02:12:10;;;;;;;17.97;10.67;;;;;;;;;;4954517;28;20416;-79
2024/01/17 02:14:39;;;;;;;14.03;10.37;;;;;;;;;;4954159;28;20421;-78
2024/01/17 02:17:05;;;;;;;14.63;10.43;;;;;;;;;;4953436;28;20471;-79
2024/01/17 02:19:31;;;;;;;15.30;10.70;;;;;;;;;;4953682;28;20423;-79
2024/01/17 02:21:57;;;;;;;14.70;9.87;;;;;;;;;;4954516;28;20449;-79
2024/01/17 02:24:23;;;;;;;15.47;11.33;;;;;;;;;;4954418;28;20416;-79
2024/01/17 02:26:49;;;;;;;15.83;10.30;;;;;;;;;;4954760;28;20788;-79
2024/01/17 02:29:15;;;;;;;17.20;11.53;;;;;;;;;;4954221;28;20909;-78
2024/01/17 02:31:43;;;;;;;16.60;9.97;;;;;;;;;;4954406;28;20504;-79
2024/01/17 02:34:09;;;;;;;13.13;10.83;;;;;;;;;;4952795;28;20773;-78
2024/01/17 02:36:35;;;;;;;13.73;10.10;;;;;;;;;;4954112;28;20478;-78
2024/01/17 02:39:01;;;;;;;16.57;9.97;;;;;;;;;;4954289;28;20503;-78
2024/01/17 02:41:30;;;;;;;15.63;10.60;;;;;;;;;;4954306;28;20459;-79
2024/01/17 02:43:59;;;;;;;11.87;10.63;;;;;;;;;;4954149;28;20902;-79
2024/01/17 02:46:31;;;;;;;9.80;8.80;;;;;;;;;;4954265;28;20786;-78
2024/01/17 02:48:57;;;;;;;17.40;10.77;;;;;;;;;;4953849;28;20408;-78
2024/01/17 02:51:23;;;;;;;18.63;11.40;;;;;;;;;;4953950;28;20774;-77
2024/01/17 02:53:49;;;;;;;19.03;10.90;;;;;;;;;;4952989;28;20436;-79
2024/01/17 02:56:16;;;;;;;18.63;11.23;;;;;;;;;;4953948;28;20471;-79
2024/01/17 02:58:42;;;;;;;14.43;10.43;;;;;;;;;;4954148;28;20952;-79
2024/01/17 03:01:08;;;;;;;17.90;9.90;;;;;;;;;;4954079;28;20408;-80
2024/01/17 03:03:34;;;;;;;12.97;9.40;;;;;;;;;;4913086;28;20413;-79
2024/01/17 03:06:00;;;;;;;11.77;9.90;;;;;;;;;;4968833;28;20500;-79
2024/01/17 03:08:26;;;;;;;14.13;10.57;;;;;;;;;;4953922;28;20558;-80
2024/01/17 03:10:52;;;;;;;13.20;9.77;;;;;;;;;;4954077;28;20556;-80
2024/01/17 03:13:18;;;;;;;14.10;10.40;;;;;;;;;;4955094;28;20422;-80
2024/01/17 03:15:43;;;;;;;17.43;9.40;;;;;;;;;;4957281;28;20512;-79
2024/01/17 03:18:13;;;;;;;12.77;9.20;;;;;;;;;;4972022;28;20439;-79
2024/01/17 03:20:40;;;;;;;17.47;9.77;;;;;;;;;;4955048;29;20902;-79
2024/01/17 03:23:06;;;;;;;15.37;8.87;;;;;;;;;;4957304;28;20466;-79
2024/01/17 03:25:33;;;;;;;13.60;9.10;;;;;;;;;;4957147;28;20504;-80
2024/01/17 03:27:58;;;;;;;12.83;9.33;;;;;;;;;;4957244;28;20500;-80
2024/01/17 03:30:24;;;;;;;12.03;8.67;;;;;;;;;;4957220;28;20507;-80
2024/01/17 03:32:50;;;;;;;13.67;8.70;;;;;;;;;;4956834;28;20475;-79
2024/01/17 03:35:16;;;;;;;13.47;8.03;;;;;;;;;;4957006;28;20479;-79
2024/01/17 03:37:42;;;;;;;10.87;8.23;;;;;;;;;;4957132;28;20424;-79
2024/01/17 03:40:08;;;;;;;12.50;8.60;;;;;;;;;;4957028;28;20827;-79
2024/01/17 03:42:37;;;;;;;13.57;8.47;;;;;;;;;;4956910;28;20445;-79
2024/01/17 03:45:06;;;;;;;10.70;7.17;;;;;;;;;;4956882;28;20427;-79
2024/01/17 03:47:32;;;;;;;12.57;8.43;;;;;;;;;;4956603;28;20781;-79
2024/01/17 03:49:58;;;;;;;15.07;10.20;;;;;;;;;;4956903;28;20793;-79
2024/01/17 03:52:24;;;;;;;14.37;8.57;;;;;;;;;;4956651;28;20456;-79
2024/01/17 03:54:50;;;;;;;13.93;8.00;;;;;;;;;;4956671;28;20474;-79
2024/01/17 03:57:16;;;;;;;15.00;10.30;;;;;;;;;;4971654;28;20424;-79
2024/01/17 03:59:43;;;;;;;9.50;8.50;;;;;;;;;;4956687;28;20427;-79
2024/01/17 04:02:09;;;;;;;18.13;9.60;;;;;;;;;;4956601;28;20416;-79
2024/01/17 04:04:35;;;;;;;11.73;9.20;;;;;;;;;;4956440;28;20419;-79
2024/01/17 04:07:01;;;;;;;10.03;8.83;;;;;;;;;;4956521;28;20427;-79
2024/01/17 04:09:26;;;;;;;12.43;8.43;;;;;;;;;;4956562;28;21116;-79
2024/01/17 04:11:52;;;;;;;10.40;8.00;;;;;;;;;;4956501;28;20423;-79
2024/01/17 04:14:18;;;;;;;14.10;9.17;;;;;;;;;;4956468;28;20416;-79
2024/01/17 04:16:44;;;;;;;14.97;9.40;;;;;;;;;;4956351;28;20483;-78
2024/01/17 04:19:10;;;;;;;10.90;7.90;;;;;;;;;;4956371;28;20905;-78
2024/01/17 04:21:36;;;;;;;14.50;8.17;;;;;;;;;;4956332;28;20419;-77
2024/01/17 04:24:02;;;;;;;11.13;9.20;;;;;;;;;;4955912;28;20429;-78
2024/01/17 04:26:28;;;;;;;5.43;4.90;;;;;;;;;;4956347;28;20423;-78
2024/01/17 04:28:54;;;;;;;16.40;6.90;;;;;;;;;;4956189;28;20452;-78
2024/01/17 04:31:24;;;;;;;11.33;9.17;;;;;;;;;;4956120;28;20446;-77
2024/01/17 04:33:50;;;;;;;12.17;8.80;;;;;;;;;;4918398;28;20446;-78
2024/01/17 04:36:16;;;;;;;14.90;9.80;;;;;;;;;;4951578;28;20468;-78
2024/01/17 04:38:43;;;;;;;11.40;7.80;;;;;;;;;;4956110;28;20416;-78
2024/01/17 04:41:09;;;;;;;13.93;8.83;;;;;;;;;;4955991;28;20424;-78
2024/01/17 04:43:35;;;;;;;13.23;8.53;;;;;;;;;;4955853;28;20405;-77
2024/01/17 04:46:01;;;;;;;18.20;9.63;;;;;;;;;;4955957;28;20805;-79
2024/01/17 04:48:26;;;;;;;13.30;8.30;;;;;;;;;;4954208;28;20405;-78
2024/01/17 04:50:58;;;;;;;14.40;9.57;;;;;;;;;;4955705;28;20435;-78
2024/01/17 04:53:24;;;;;;;12.30;8.23;;;;;;;;;;4955624;28;20464;-78
2024/01/17 04:55:50;;;;;;;8.77;6.93;;;;;;;;;;4955665;28;20478;-78
2024/01/17 04:58:17;;;;;;;10.70;5.47;;;;;;;;;;4955594;28;20435;-79
2024/01/17 05:00:46;;;;;;;8.20;6.30;;;;;;;;;;4955331;29;20405;-78
2024/01/17 05:03:12;;;;;;;9.70;5.20;;;;;;;;;;4955192;28;20951;-79
2024/01/17 05:05:38;;;;;;;14.83;9.30;;;;;;;;;;4952994;29;20424;-78
2024/01/17 05:08:04;;;;;;;11.43;8.20;;;;;;;;;;4955474;28;20411;-79
2024/01/17 05:10:30;;;;;;;12.00;9.00;;;;;;;;;;4955476;28;20408;-78
2024/01/17 05:12:56;;;;;;;17.43;10.20;;;;;;;;;;4970095;28;20428;-79
2024/01/17 05:15:22;;;;;;;10.30;7.57;;;;;;;;;;4955160;28;20456;-78
2024/01/17 05:17:48;;;;;;;10.00;6.60;;;;;;;;;;4954992;28;20427;-78
2024/01/17 05:20:17;;;;;;;9.23;7.97;;;;;;;;;;4955223;28;20462;-78
2024/01/17 05:22:42;;;;;;;12.10;8.43;;;;;;;;;;4955146;28;20504;-79
2024/01/17 05:25:11;;;;;;;13.63;8.93;;;;;;;;;;4955175;28;20476;-78
2024/01/17 05:27:37;;;;;;;16.50;10.23;;;;;;;;;;4955020;28;20432;-78
2024/01/17 05:30:03;;;;;;;10.53;8.00;;;;;;;;;;4955102;28;20416;-80
2024/01/17 05:32:29;;;;;;;8.33;6.67;;;;;;;;;;4954718;28;20451;-80
2024/01/17 05:34:55;;;;;;;12.40;8.10;;;;;;;;;;4954615;28;20448;-78
2024/01/17 05:37:23;;;;;;;5.63;4.30;;;;;;;;;;4954404;28;20505;-80
2024/01/17 05:39:49;;;;;;;14.77;9.30;;;;;;;;;;4954797;28;20504;-79
2024/01/17 05:42:15;;;;;;;12.47;7.10;;;;;;;;;;4954776;28;20841;-78
2024/01/17 05:44:41;;;;;;;11.83;7.17;;;;;;;;;;4954736;28;20420;-78
2024/01/17 05:47:07;;;;;;;12.47;7.57;;;;;;;;;;4954484;28;20408;-80
2024/01/17 05:49:33;;;;;;;10.30;6.87;;;;;;;;;;4954703;28;20420;-79
2024/01/17 05:51:59;;;;;;;9.03;6.23;;;;;;;;;;4954547;28;20491;-79
2024/01/17 05:54:25;;;;;;;14.20;12.80;;;;;;;;;;4955150;28;20416;-79
2024/01/17 05:56:51;;;;;;;11.00;7.87;;;;;;;;;;4955146;28;20481;-79
2024/01/17 05:59:17;;;;;;;12.43;8.33;;;;;;;;;;4954937;28;20416;-79
2024/01/17 06:01:43;;;;;;;11.83;9.20;;;;;;;;;;4955200;28;20413;-80
2024/01/17 06:04:10;;;;;;;13.60;8.43;;;;;;;;;;4925280;28;20483;-80
2024/01/17 06:06:36;;;;;;;10.70;7.17;;;;;;;;;;4944427;28;20409;-79
2024/01/17 06:09:02;;;;;;;10.80;8.57;;;;;;;;;;4954722;28;20409;-80
2024/01/17 06:11:27;;;;;;;11.50;7.80;;;;;;;;;;4954956;28;20435;-81
2024/01/17 06:13:56;;;;;;;11.30;7.27;;;;;;;;;;4954525;28;20416;-79
2024/01/17 06:16:26;;;;;;;13.57;9.03;;;;;;;;;;4954264;28;20471;-80
2024/01/17 06:18:52;;;;;;;11.67;7.60;;;;;;;;;;4952299;28;20425;-80
2024/01/17 06:21:20;;;;;;;10.00;9.00;;;;;;;;;;4954267;28;20937;-81
2024/01/17 06:23:47;;;;;;;9.53;6.70;;;;;;;;;;4954240;28;20467;-80
2024/01/17 06:26:13;;;;;;;9.87;7.90;;;;;;;;;;4954142;28;20459;-79
2024/01/17 06:28:39;;;;;;;8.80;7.33;;;;;;;;;;4954212;28;20409;-80
2024/01/17 06:31:13;;;;;;;13.30;7.70;;;;;;;;;;4954307;28;20447;-83
2024/01/17 06:33:39;;;;;;;7.30;6.60;;;;;;;;;;4951404;29;20921;-80
2024/01/17 06:36:05;;;;;;;12.97;7.50;;;;;;;;;;4968911;28;20464;-81
2024/01/17 06:38:31;;;;;;;10.33;7.20;;;;;;;;;;4952877;29;20417;-82
2024/01/17 06:40:57;;;;;;;10.03;6.90;;;;;;;;;;4954163;28;20924;-80
2024/01/17 06:43:23;;;;;;;13.07;7.47;;;;;;;;;;4969146;28;20425;-79
2024/01/17 06:45:49;;;;;;;10.30;7.53;;;;;;;;;;4953218;28;20420;-81
2024/01/17 06:48:15;;;;;;;10.50;7.43;;;;;;;;;;4956466;28;20413;-79
2024/01/17 06:50:41;;;;;;;7.97;6.60;;;;;;;;;;4957881;28;20784;-80
2024/01/17 06:53:07;;;;;;;10.90;5.40;;;;;;;;;;4957661;28;20465;-79
2024/01/17 06:55:33;;;;;;;6.87;5.60;;;;;;;;;;4957686;28;20471;-80
2024/01/17 06:57:59;;;;;;;11.90;6.83;;;;;;;;;;4957835;28;20504;-81
2024/01/17 07:00:25;;;;;;;8.90;6.97;;;;;;;;;;4954717;28;20920;-79
2024/01/17 07:02:55;;;;;;;7.77;6.47;;;;;;;;;;4956625;28;20506;-78
2024/01/17 07:05:22;;;;;;;9.40;6.70;;;;;;;;;;4955841;29;20420;-78
2024/01/17 07:07:48;;;;;;;12.40;6.07;;;;;;;;;;4954227;29;20443;-79
2024/01/17 07:10:14;;;;;;;9.63;4.90;;;;;;;;;;4956046;28;20423;-78
2024/01/17 07:12:40;;;;;;;5.67;5.10;;;;;;;;;;4957475;28;20422;-80
2024/01/17 07:15:06;;;;;;;10.40;6.60;;;;;;;;;;4957246;28;20408;-80
2024/01/17 07:17:32;;;;;;;11.53;6.10;;;;;;;;;;4956021;28;20520;-79
2024/01/17 07:19:58;;;;;;;9.07;5.27;;;;;;;;;;4956158;29;20511;-80
2024/01/17 07:22:24;;;;;;;4.43;3.50;;;;;;;;;;4957259;28;20417;-79
2024/01/17 07:24:50;;;;;;;6.80;5.07;;;;;;;;;;4957330;28;20512;-79
2024/01/17 07:27:16;;;;;;;7.40;5.30;;;;;;;;;;4957284;28;20415;-79
2024/01/17 07:29:42;;;;;;;9.00;5.20;;;;;;;;;;4971961;28;20428;-78
2024/01/17 07:32:08;;;;;;;7.20;5.00;;;;;;;;;;4956960;28;20424;-78
2024/01/17 07:34:37;;;;;;;8.00;5.93;;;;;;;;;;4918228;28;20436;-79
2024/01/17 07:37:03;;;;;;;5.37;4.57;;;;;;;;;;4971854;28;20819;-80
2024/01/17 07:39:29;;;;;;;7.73;5.40;;;;;;;;;;4957134;28;20409;-80
2024/01/17 07:41:56;;;;;;;8.47;5.60;;;;;;;;;;4956986;28;20426;-80
2024/01/17 07:44:26;;;;;;;7.37;4.13;;;;;;;;;;4956897;28;20421;-79
2024/01/17 07:46:53;;;;;;;10.03;5.67;;;;;;;;;;4955342;28;20452;-79
2024/01/17 07:49:19;;;;;;;7.77;4.33;;;;;;;;;;4956182;28;20415;-78
2024/01/17 07:51:45;;;;;;;8.90;5.60;;;;;;;;;;4956553;28;20448;-79
2024/01/17 07:54:11;;;;;;;7.37;5.13;;;;;;;;;;4956770;28;20419;-79
2024/01/17 07:56:38;;;;;;;5.30;4.30;;;;;;;;;;4956633;28;21096;-81
2024/01/17 07:59:04;;;;;;;7.50;3.77;;;;;;;;;;4955818;28;20777;-78
2024/01/17 08:01:30;;;;;;;8.17;5.57;;;;;;;;;;4956424;28;20420;-79
2024/01/17 08:03:56;;;;;;;4.57;4.03;;;;;;;;;;4952469;28;20814;-83
2024/01/17 08:06:22;;;;;;;14.57;4.37;;;;;;;;;;4955986;28;20421;-78
2024/01/17 08:08:48;;;;;;;10.20;5.57;;;;;;;;;;4956028;28;20933;-79
2024/01/17 08:11:15;;;;;;;9.10;5.00;;;;;;;;;;4971253;28;20508;-82
2024/01/17 08:13:40;;;;;;;9.00;5.30;;;;;;;;;;4955114;29;20976;-80
2024/01/17 08:16:06;;;;;;;7.67;4.60;;;;;;;;;;4970970;28;20477;-77
2024/01/17 08:18:32;;;;;;;8.17;5.93;;;;;;;;;;4956035;28;20424;-77
2024/01/17 08:20:58;;;;;;;10.40;4.90;;;;;;;;;;4955998;28;20436;-77
2024/01/17 08:23:24;;;;;;;8.83;4.47;;;;;;;;;;4956051;28;20420;-78
2024/01/17 08:25:50;;;;;;;7.53;4.93;;;;;;;;;;4956182;28;20428;-77
2024/01/17 08:28:17;;;;;;;5.70;4.67;;;;;;;;;;4956444;28;20940;-78
2024/01/17 08:30:43;;;;;;;4.60;3.60;;;;;;;;;;4956202;29;20494;-77
2024/01/17 08:33:09;;;;;;;6.30;4.27;;;;;;;;;;4947534;28;20462;-76
2024/01/17 08:35:35;;;;;;;12.73;4.67;;;;;;;;;;4924530;28;20468;-77
2024/01/17 08:38:04;;;;;;;7.30;4.23;;;;;;;;;;4955730;28;20415;-77
2024/01/17 08:40:33;;;;;;;7.40;4.90;;;;;;;;;;4955747;28;20402;-77
2024/01/17 08:42:59;;;;;;;5.33;3.83;;;;;;;;;;4955575;28;20413;-77
2024/01/17 08:45:25;;;;;;;5.90;3.80;;;;;;;;;;4955416;28;20504;-78
2024/01/17 08:47:51;;;;;;;7.03;4.63;;;;;;;;;;4954388;28;20790;-77
2024/01/17 08:50:17;;;;;;;5.80;3.23;;;;;;;;;;4955439;28;20413;-79
2024/01/17 08:52:42;;;;;;;8.70;3.40;;;;;;;;;;4954762;28;20463;-77
2024/01/17 08:55:09;;;;;;;6.90;4.40;;;;;;;;;;4954708;28;20417;-79
2024/01/17 08:57:36;;;;;;;7.20;3.33;;;;;;;;;;4955639;28;20431;-79
2024/01/17 09:00:05;;;;;;;5.70;4.73;;;;;;;;;;4955801;28;20425;-78
2024/01/17 09:02:31;;;;;;;9.00;5.00;;;;;;;;;;4954541;28;20899;-80
2024/01/17 09:04:57;;;;;;;7.93;4.00;;;;;;;;;;4955077;28;20409;-81
2024/01/17 09:07:24;;;;;;;4.63;2.77;;;;;;;;;;4955385;28;20425;-80
2024/01/17 09:09:49;;;;;;;6.10;3.83;;;;;;;;;;4955408;28;20418;-79
2024/01/17 09:12:17;;;;;;;7.40;4.20;;;;;;;;;;4955329;28;20421;-80
2024/01/17 09:14:43;;;;;;;5.00;3.00;;;;;;;;;;4955302;28;20414;-80
2024/01/17 09:17:09;;;;;;;6.30;4.00;;;;;;;;;;4954849;28;20479;-80
2024/01/17 09:19:35;;;;;;;6.63;4.03;;;;;;;;;;4955288;28;20418;-80
2024/01/17 09:22:01;;;;;;;4.00;2.53;;;;;;;;;;4955089;28;20420;-80
2024/01/17 09:24:27;;;;;;;9.43;4.43;;;;;;;;;;4955130;28;20548;-80
2024/01/17 09:26:56;;;;;;;7.53;3.60;;;;;;;;;;4969946;28;20860;-79
2024/01/17 09:29:21;;;;;;;6.20;3.80;;;;;;;;;;4953034;28;20417;-78
2024/01/17 09:31:48;;;;;;;7.13;3.57;;;;;;;;;;4968841;28;20417;-80
2024/01/17 09:34:14;;;;;;;9.17;4.70;;;;;;;;;;4955338;28;20440;-79
2024/01/17 09:36:39;;;;;;;10.80;4.50;;;;;;;;;;4904998;28;20516;-80
2024/01/17 09:39:05;;;;;;;4.90;3.43;;;;;;;;;;4953215;29;21131;-78
2024/01/17 09:41:31;;;;;;;6.67;4.23;;;;;;;;;;4955063;28;20416;-81
2024/01/17 09:43:57;;;;;;;5.53;3.10;;;;;;;;;;4955329;28;20818;-79
2024/01/17 09:46:24;;;;;;;5.60;4.67;;;;;;;;;;4954883;28;20785;-81
2024/01/17 09:48:50;;;;;;;17.80;4.50;;;;;;;;;;4955068;28;20415;-78
2024/01/17 09:51:16;;;;;;;6.47;5.10;;;;;;;;;;4954673;28;20416;-77
2024/01/17 09:53:45;;;;;;;7.03;3.47;;;;;;;;;;4954799;28;20908;-80
2024/01/17 09:56:11;;;;;;;6.60;4.03;;;;;;;;;;4954621;28;20819;-79
2024/01/17 09:58:38;;;;;;;9.90;5.00;;;;;;;;;;4955218;28;20420;-79
2024/01/17 10:01:05;;;;;;;5.27;4.47;;;;;;;;;;4955012;28;20455;-77
2024/01/17 10:03:40;;;;;;;6.73;4.63;;;;;;;;;;4954570;28;20417;-78
2024/01/17 10:06:07;;;;;;;6.70;2.83;;;;;;;;;;4954925;28;20419;-77
2024/01/17 10:08:33;;;;;;;8.33;3.90;;;;;;;;;;4954518;28;20424;-79
2024/01/17 10:10:59;;;;;;;10.27;4.93;;;;;;;;;;4954767;28;20475;-81
2024/01/17 10:13:25;;;;;;;6.07;4.60;;;;;;;;;;4954623;28;20409;-79
2024/01/17 10:15:52;;;;;;;7.87;4.60;;;;;;;;;;4953374;28;20488;-81
2024/01/17 10:18:17;;;;;;;6.10;4.00;;;;;;;;;;4952569;28;20418;-83
2024/01/17 10:20:44;;;;;;;7.40;4.53;;;;;;;;;;4954605;28;21041;-82
2024/01/17 10:23:10;;;;;;;7.30;5.03;;;;;;;;;;4959595;28;20562;-81
2024/01/17 10:25:42;;;;;;;5.20;3.60;;;;;;;;;;4960909;28;20505;-80
2024/01/17 10:28:08;;;;;;;9.13;5.13;;;;;;;;;;4960888;28;20448;-79
2024/01/17 10:30:37;;;;;;;11.77;5.33;;;;;;;;;;4960538;28;20423;-80
2024/01/17 10:33:03;;;;;;;7.70;4.10;;;;;;;;;;4960282;28;20464;-80
2024/01/17 10:35:30;;;;;;;8.43;4.97;;;;;;;;;;4973687;28;20460;-80
2024/01/17 10:37:56;;;;;;;9.73;5.50;;;;;;;;;;4959298;28;20920;-81
2024/01/17 10:40:22;;;;;;;8.17;5.10;;;;;;;;;;4920351;28;20432;-78
2024/01/17 10:43:02;;;;;;;7.77;4.63;;;;;;;;;;4960174;28;20532;-79
2024/01/17 10:45:33;;;;;;;7.20;5.10;;;;;;;;;;4960742;28;20431;-81
2024/01/17 10:47:59;;;;;;;6.77;5.43;;;;;;;;;;4972026;28;20442;-84
2024/01/17 10:50:25;;;;;;;10.33;5.73;;;;;;;;;;4959562;28;20784;-83
2024/01/17 10:52:52;;;;;;;7.30;5.73;;;;;;;;;;4960218;28;20574;-82
2024/01/17 10:55:18;;;;;;;7.80;5.47;;;;;;;;;;4958423;28;20416;-82
2024/01/17 10:57:49;;;;;;;7.00;4.53;;;;;;;;;;4960392;28;20483;-82
2024/01/17 11:00:17;;;;;;;8.77;5.10;;;;;;;;;;4960389;28;20542;-79
2024/01/17 11:02:43;;;;;;;9.10;4.60;;;;;;;;;;4960385;28;20430;-82
2024/01/17 11:05:11;;;;;;;8.10;4.17;;;;;;;;;;4960626;28;20414;-82
2024/01/17 11:07:37;;;;;;;6.50;4.90;;;;;;;;;;4950255;28;20425;-81
2024/01/17 11:10:04;;;;;;;5.67;3.73;;;;;;;;;;4957032;28;20450;-82
2024/01/17 11:12:32;;;;;;;6.83;4.83;;;;;;;;;;4960488;28;20465;-82
2024/01/17 11:14:59;;;;;;;7.63;4.97;;;;;;;;;;4960423;28;20417;-82
2024/01/17 11:17:28;;;;;;;7.27;4.10;;;;;;;;;;4960014;28;20537;-82
2024/01/17 11:19:55;;;;;;;8.30;5.80;;;;;;;;;;4960323;28;20424;-82
2024/01/17 11:22:21;;;;;;;9.33;5.60;;;;;;;;;;4960471;28;20803;-82
2024/01/17 11:24:51;;;;;;;8.13;4.90;;;;;;;;;;4960315;28;20414;-83
2024/01/17 11:27:23;;;;;;;8.30;5.20;;;;;;;;;;4960332;28;20433;-82
2024/01/17 11:29:49;;;;;;;8.70;5.10;;;;;;;;;;4960183;28;20898;-82
2024/01/17 11:32:35;;;;;;;5.70;4.30;;;;;;;;;;4958765;28;20434;-80
2024/01/17 11:35:01;;;;;;;7.20;4.57;;;;;;;;;;4956166;28;20416;-82
2024/01/17 11:37:32;;;;;;;7.00;4.93;;;;;;;;;;4955864;28;20857;-82
2024/01/17 11:40:02;;;;;;;8.07;4.70;;;;;;;;;;4955908;28;20427;-82
2024/01/17 11:42:28;;;;;;;9.00;5.60;;;;;;;;;;4957279;28;20460;-82
2024/01/17 11:44:55;;;;;;;10.00;5.50;;;;;;;;;;4955859;28;20519;-82
2024/01/17 11:47:21;;;;;;;8.90;5.97;;;;;;;;;;4956917;28;20423;-80
2024/01/17 11:49:54;;;;;;;9.00;5.20;;;;;;;;;;4955584;28;20529;-80
2024/01/17 11:52:27;;;;;;;11.30;4.83;;;;;;;;;;4957027;28;20471;-79
2024/01/17 11:54:54;;;;;;;9.63;5.23;;;;;;;;;;4957101;28;20417;-80
2024/01/17 11:57:20;;;;;;;6.87;5.10;;;;;;;;;;4956972;28;20861;-80
2024/01/17 12:00:19;;;;;;;9.87;5.80;;;;;;;;;;4956472;28;20420;-80
2024/01/17 12:02:45;;;;;;;8.30;5.13;;;;;;;;;;4954738;28;20922;-80
2024/01/17 12:05:12;;;;;;;7.53;4.93;;;;;;;;;;4955534;28;20469;-80
2024/01/17 12:07:42;;;;;;;9.10;5.23;;;;;;;;;;4956824;28;20409;-80
2024/01/17 12:10:09;;;;;;;10.37;4.70;;;;;;;;;;4956513;29;20904;-81
2024/01/17 12:12:42;;;;;;;8.40;5.80;;;;;;;;;;4956787;28;20409;-81
2024/01/17 12:15:09;;;;;;;8.27;5.03;;;;;;;;;;4956155;28;20523;-81
2024/01/17 12:17:37;;;;;;;10.33;5.37;;;;;;;;;;4951903;28;20434;-82
2024/01/17 12:20:06;;;;;;;9.97;5.07;;;;;;;;;;4956556;28;20923;-81
2024/01/17 12:22:33;;;;;;;6.33;4.60;;;;;;;;;;4955610;28;20527;-81
2024/01/17 12:24:59;;;;;;;7.00;5.20;;;;;;;;;;4956676;28;20803;-80
2024/01/17 12:27:26;;;;;;;6.33;4.83;;;;;;;;;;4956814;28;20418;-80
2024/01/17 12:29:54;;;;;;;6.83;4.80;;;;;;;;;;4956208;28;20820;-79
2024/01/17 12:32:22;;;;;;;8.57;5.97;;;;;;;;;;4956196;28;20427;-81
2024/01/17 12:34:48;;;;;;;9.30;5.10;;;;;;;;;;4956477;28;20431;-80
2024/01/17 12:37:14;;;;;;;8.93;4.77;;;;;;;;;;4955738;28;20478;-82
2024/01/17 12:39:40;;;;;;;8.00;4.97;;;;;;;;;;4956300;28;20504;-82
2024/01/17 12:42:05;;;;;;;8.57;6.00;;;;;;;;;;4955034;28;20468;-80
2024/01/17 12:44:32;;;;;;;8.77;5.90;;;;;;;;;;4955883;28;20906;-81
2024/01/17 12:46:58;;;;;;;10.03;5.30;;;;;;;;;;4955739;28;20424;-84
2024/01/17 12:49:24;;;;;;;8.87;5.37;;;;;;;;;;4956155;28;20419;-83
2024/01/17 12:51:50;;;;;;;8.27;5.30;;;;;;;;;;4955512;28;20465;-83
2024/01/17 12:54:19;;;;;;;10.43;6.80;;;;;;;;;;4956194;28;20919;-83
2024/01/17 12:56:45;;;;;;;13.83;5.63;;;;;;;;;;4955851;28;20525;-84
2024/01/17 12:59:12;;;;;;;9.37;5.90;;;;;;;;;;4970722;28;20428;-83
2024/01/17 13:01:43;;;;;;;6.80;4.00;;;;;;;;;;4955420;28;20425;-81
2024/01/17 13:04:09;;;;;;;7.70;5.77;;;;;;;;;;4955886;28;20988;-82
2024/01/17 13:06:45;;;;;;;8.37;5.80;;;;;;;;;;4955928;28;20823;-82
2024/01/17 13:09:18;;;;;;;12.97;5.27;;;;;;;;;;4955570;28;20423;-84
2024/01/17 13:11:50;;;;;;;11.73;5.80;;;;;;;;;;4956665;28;20408;-83
2024/01/17 13:14:17;;;;;;;7.87;4.90;;;;;;;;;;4956535;28;20404;-81
2024/01/17 13:16:45;;;;;;;11.70;5.30;;;;;;;;;;4956093;28;20563;-83
2024/01/17 13:19:13;;;;;;;9.23;5.07;;;;;;;;;;4956266;28;20416;-83
2024/01/17 13:21:41;;;;;;;8.67;5.40;;;;;;;;;;4970822;28;20423;-81
2024/01/17 13:24:07;;;;;;;8.60;5.80;;;;;;;;;;4970841;28;20473;-81
2024/01/17 13:26:35;;;;;;;8.10;6.00;;;;;;;;;;4955076;28;20416;-81
2024/01/17 13:29:02;;;;;;;7.20;5.33;;;;;;;;;;4956077;28;20426;-81
2024/01/17 13:31:29;;;;;;;12.83;6.10;;;;;;;;;;4955740;28;20409;-82
2024/01/17 13:33:57;;;;;;;10.53;6.43;;;;;;;;;;4955884;28;20471;-81
2024/01/17 13:36:24;;;;;;;9.63;4.50;;;;;;;;;;4955700;28;20487;-81
2024/01/17 13:39:18;;;;;;;13.10;6.67;;;;;;;;;;4897951;28;20451;-84
2024/01/17 13:41:49;;;;;;;11.27;5.60;;;;;;;;;;4947732;28;20428;-86
2024/01/17 13:44:23;;;;;;;8.30;6.20;;;;;;;;;;4955915;28;21004;-85
2024/01/17 13:46:59;;;;;;;9.60;6.30;;;;;;;;;;4963042;28;20467;-85
2024/01/17 13:49:39;;;;;;;8.87;6.33;;;;;;;;;;4955921;28;21123;-83
2024/01/17 13:52:14;;;;;;;11.50;6.50;;;;;;;;;;4969273;28;20463;-85
2024/01/17 13:54:46;;;;;;;12.00;6.67;;;;;;;;;;4955849;28;20928;-86
2024/01/17 13:57:24;;;;;;;13.77;8.40;;;;;;;;;;4971179;28;21043;-85
2024/01/17 14:00:12;;;;;;;12.07;6.80;;;;;;;;;;4954377;29;20406;-85
2024/01/17 14:02:42;;;;;;;8.43;6.50;;;;;;;;;;4963502;28;20424;-86
2024/01/17 14:05:09;;;;;;;10.70;6.50;;;;;;;;;;4955030;28;20415;-85
2024/01/17 14:07:36;;;;;;;9.40;5.93;;;;;;;;;;4953649;28;20419;-81
2024/01/17 14:10:03;;;;;;;9.83;6.60;;;;;;;;;;4953251;28;20516;-81
2024/01/17 14:12:29;;;;;;;11.13;6.10;;;;;;;;;;4954712;28;20415;-80
2024/01/17 14:14:55;;;;;;;7.73;6.40;;;;;;;;;;4954249;28;20760;-81
2024/01/17 14:17:24;;;;;;;10.50;5.60;;;;;;;;;;4954085;28;20480;-81
2024/01/17 14:20:03;;;;;;;9.70;6.30;;;;;;;;;;4954653;28;20888;-81
2024/01/17 14:22:30;;;;;;;10.70;5.17;;;;;;;;;;4954693;28;20416;-82
2024/01/17 14:24:56;;;;;;;8.27;4.97;;;;;;;;;;4954503;28;20442;-81
2024/01/17 14:27:22;;;;;;;9.60;6.90;;;;;;;;;;4954448;28;20412;-82
2024/01/17 14:29:48;;;;;;;6.90;5.60;;;;;;;;;;4954400;28;20421;-83
2024/01/17 14:32:15;;;;;;;9.73;5.40;;;;;;;;;;4954025;28;20841;-82